createdAt,value
2018-05-13T00:00:20.380Z,100588.05
2018-05-13T00:02:48.524Z,100586.26
2018-05-13T00:05:16.717Z,100586.53
2018-05-13T00:07:44.825Z,100582.17
2018-05-13T00:10:12.926Z,100584.91
2018-05-13T00:12:41.074Z,100584.66
2018-05-13T00:15:09.184Z,100589.55
2018-05-13T00:17:37.322Z,100580.81
2018-05-13T00:20:05.473Z,100580.67
2018-05-13T00:22:33.607Z,100574.30
2018-05-13T00:25:05.041Z,100578.34
2018-05-13T00:27:34.783Z,100577.23
2018-05-13T00:30:03.219Z,100577.22
2018-05-13T00:32:31.359Z,100580.76
2018-05-13T00:34:59.497Z,100585.15
2018-05-13T00:37:27.628Z,100584.74
2018-05-13T00:39:55.751Z,100580.37
2018-05-13T00:42:23.867Z,100581.48
2018-05-13T00:44:51.998Z,100585.70
2018-05-13T00:47:20.114Z,100581.31
2018-05-13T00:49:48.256Z,100581.47
2018-05-13T00:52:16.395Z,100578.16
2018-05-13T00:54:54.466Z,100574.86
2018-05-13T00:57:22.579Z,100579.80
2018-05-13T00:59:50.723Z,100586.81
2018-05-13T01:02:18.857Z,100580.27
2018-05-13T01:04:46.968Z,100585.20
2018-05-13T01:07:15.109Z,100581.37
2018-05-13T01:09:43.249Z,100586.15
2018-05-13T01:12:11.381Z,100588.70
2018-05-13T01:14:39.490Z,100589.25
2018-05-13T01:17:07.623Z,100589.44
2018-05-13T01:19:35.742Z,100586.01
2018-05-13T01:22:03.862Z,100594.03
2018-05-13T01:24:31.999Z,100582.20
2018-05-13T01:27:00.132Z,100585.75
2018-05-13T01:29:28.268Z,100579.92
2018-05-13T01:31:56.416Z,100570.77
2018-05-13T01:34:27.847Z,100573.80
2018-05-13T01:36:55.973Z,100571.64
2018-05-13T01:39:24.109Z,100568.25
2018-05-13T01:41:53.030Z,100566.38
2018-05-13T01:44:21.138Z,100570.62
2018-05-13T01:46:49.277Z,100586.15
2018-05-13T01:49:17.399Z,100583.14
2018-05-13T01:51:45.529Z,100582.63
2018-05-13T01:54:13.660Z,100588.37
2018-05-13T01:56:41.824Z,100594.34
2018-05-13T01:59:09.935Z,100586.45
2018-05-13T02:01:38.060Z,100582.09
2018-05-13T02:04:06.174Z,100587.13
2018-05-13T02:06:34.301Z,100586.05
2018-05-13T02:09:02.433Z,100593.84
2018-05-13T02:11:30.543Z,100593.53
2018-05-13T02:13:58.684Z,100597.06
2018-05-13T02:16:26.828Z,100597.06
2018-05-13T02:18:57.181Z,100594.08
2018-05-13T02:21:25.356Z,100598.16
2018-05-13T02:23:53.437Z,100588.77
2018-05-13T02:26:21.561Z,100591.21
2018-05-13T02:28:49.666Z,100591.22
2018-05-13T02:31:17.838Z,100586.33
2018-05-13T02:33:45.967Z,100595.16
2018-05-13T02:36:14.054Z,100587.27
2018-05-13T02:38:42.188Z,100586.19
2018-05-13T02:41:10.328Z,100587.55
2018-05-13T02:43:38.468Z,100581.69
2018-05-13T02:46:06.587Z,100589.33
2018-05-13T02:48:34.736Z,100584.41
2018-05-13T02:51:03.252Z,100588.91
2018-05-13T02:53:31.395Z,100591.20
2018-05-13T02:55:59.522Z,100586.31
2018-05-13T02:58:27.645Z,100592.03
2018-05-13T03:00:55.783Z,100589.82
2018-05-13T03:03:23.895Z,100591.05
2018-05-13T03:05:52.030Z,100591.30
2018-05-13T03:08:20.169Z,100588.86
2018-05-13T03:10:48.298Z,100588.85
2018-05-13T03:13:16.431Z,100594.72
2018-05-13T03:15:44.739Z,100596.47
2018-05-13T03:18:12.861Z,100586.00
2018-05-13T03:20:41.012Z,100592.51
2018-05-13T03:23:09.163Z,100596.67
2018-05-13T03:25:37.300Z,100610.64
2018-05-13T03:28:05.421Z,100610.52
2018-05-13T03:30:33.556Z,100616.39
2018-05-13T03:33:01.697Z,100616.63
2018-05-13T03:35:29.891Z,100614.48
2018-05-13T03:37:58.109Z,100620.86
2018-05-13T03:40:26.332Z,100618.97
2018-05-13T03:42:54.637Z,100619.63
2018-05-13T03:45:23.041Z,100625.33
2018-05-13T03:47:51.142Z,100630.42
2018-05-13T03:50:19.265Z,100633.03
2018-05-13T03:52:47.394Z,100639.53
2018-05-13T03:55:15.510Z,100636.89
2018-05-13T03:57:43.660Z,100627.39
2018-05-13T04:00:11.803Z,100632.28
2018-05-13T04:02:39.930Z,100635.81
2018-05-13T04:05:08.049Z,100650.47
2018-05-13T04:07:53.918Z,100638.19
2018-05-13T04:10:33.945Z,100641.88
2018-05-13T04:13:13.814Z,100640.42
2018-05-13T04:15:41.992Z,100659.48
2018-05-13T04:18:10.437Z,100662.09
2018-05-13T04:20:38.570Z,100665.21
2018-05-13T04:23:06.715Z,100669.98
2018-05-13T04:25:34.898Z,100663.05
2018-05-13T04:28:03.102Z,100659.78
2018-05-13T04:30:31.255Z,100660.77
2018-05-13T04:33:00.095Z,100660.60
2018-05-13T04:35:28.509Z,100655.47
2018-05-13T04:37:56.644Z,100666.85
2018-05-13T04:40:24.766Z,100671.94
2018-05-13T04:42:52.904Z,100662.83
2018-05-13T04:45:21.037Z,100664.20
2018-05-13T04:47:49.175Z,100669.64
2018-05-13T04:50:17.329Z,100673.16
2018-05-13T04:52:45.475Z,100669.08
2018-05-13T04:55:13.600Z,100668.41
2018-05-13T04:57:41.831Z,100669.09
2018-05-13T05:00:09.980Z,100663.64
2018-05-13T05:02:38.118Z,100665.89
2018-05-13T05:05:06.260Z,100677.27
2018-05-13T05:07:34.381Z,100678.56
2018-05-13T05:10:02.537Z,100673.97
2018-05-13T05:12:30.647Z,100675.33
2018-05-13T05:14:58.784Z,100671.37
2018-05-13T05:17:26.919Z,100670.55
2018-05-13T05:19:55.049Z,100668.23
2018-05-13T05:22:23.181Z,100666.70
2018-05-13T05:24:51.315Z,100679.24
2018-05-13T05:27:19.438Z,100675.05
2018-05-13T05:29:47.577Z,100676.16
2018-05-13T05:32:15.711Z,100676.83
2018-05-13T05:34:43.840Z,100673.85
2018-05-13T05:37:11.976Z,100670.87
2018-05-13T05:39:40.083Z,100662.36
2018-05-13T05:42:08.289Z,100665.21
2018-05-13T05:44:36.417Z,100671.52
2018-05-13T05:47:04.563Z,100667.58
2018-05-13T05:49:32.698Z,100678.75
2018-05-13T05:52:00.806Z,100681.19
2018-05-13T05:54:28.936Z,100688.32
2018-05-13T05:56:57.109Z,100699.31
2018-05-13T05:59:25.252Z,100711.66
2018-05-13T06:01:53.344Z,100706.31
2018-05-13T06:04:21.513Z,100714.13
2018-05-13T06:06:49.631Z,100709.35
2018-05-13T06:09:17.738Z,100712.63
2018-05-13T06:11:45.893Z,100723.40
2018-05-13T06:14:14.018Z,100725.25
2018-05-13T06:16:42.546Z,100724.02
2018-05-13T06:19:10.709Z,100727.45
2018-05-13T06:21:38.838Z,100725.91
2018-05-13T06:24:06.969Z,100733.50
2018-05-13T06:26:35.095Z,100735.44
2018-05-13T06:29:03.248Z,100739.55
2018-05-13T06:31:35.088Z,100756.42
2018-05-13T06:34:03.252Z,100765.92
2018-05-13T06:36:31.396Z,100768.35
2018-05-13T06:38:59.530Z,100765.64
2018-05-13T06:41:27.685Z,100773.69
2018-05-13T06:43:55.811Z,100783.81
2018-05-13T06:46:23.937Z,100782.65
2018-05-13T06:48:52.236Z,100785.88
2018-05-13T06:51:20.424Z,100776.67
2018-05-13T06:53:48.477Z,100778.78
2018-05-13T06:56:16.617Z,100771.11
2018-05-13T06:58:44.768Z,100778.39
2018-05-13T07:01:12.954Z,100786.53
2018-05-13T07:03:41.107Z,100787.20
2018-05-13T07:06:09.231Z,100791.05
2018-05-13T07:08:37.354Z,100787.62
2018-05-13T07:11:05.512Z,100787.08
2018-05-13T07:13:36.566Z,100774.96
2018-05-13T07:16:04.825Z,100774.31
2018-05-13T07:18:32.961Z,100769.95
2018-05-13T07:21:01.083Z,100760.89
2018-05-13T07:23:29.194Z,100757.47
2018-05-13T07:25:57.321Z,100757.34
2018-05-13T07:28:25.465Z,100767.37
2018-05-13T07:30:53.607Z,100760.98
2018-05-13T07:33:21.741Z,100762.58
2018-05-13T07:35:49.854Z,100765.21
2018-05-13T07:38:17.967Z,100760.75
2018-05-13T07:40:46.098Z,100762.11
2018-05-13T07:43:14.261Z,100762.78
2018-05-13T07:45:42.386Z,100760.20
2018-05-13T07:48:10.751Z,100767.43
2018-05-13T07:50:39.512Z,100774.94
2018-05-13T07:53:07.669Z,100776.28
2018-05-13T07:55:35.842Z,100776.39
2018-05-13T07:58:03.989Z,100778.05
2018-05-13T08:00:32.136Z,100786.37
2018-05-13T08:03:00.253Z,100783.22
2018-05-13T08:05:28.483Z,100786.91
2018-05-13T08:07:56.626Z,100787.59
2018-05-13T08:10:24.759Z,100782.69
2018-05-13T08:12:52.888Z,100783.69
2018-05-13T08:15:21.021Z,100780.36
2018-05-13T08:17:49.165Z,100779.28
2018-05-13T08:20:17.360Z,100780.69
2018-05-13T08:22:45.403Z,100788.86
2018-05-13T08:25:13.576Z,100777.37
2018-05-13T08:27:41.716Z,100779.53
2018-05-13T08:30:09.850Z,100785.40
2018-05-13T08:32:37.984Z,100799.02
2018-05-13T08:35:06.102Z,100798.38
2018-05-13T08:37:34.223Z,100803.25
2018-05-13T08:40:02.368Z,100812.54
2018-05-13T08:42:30.506Z,100801.27
2018-05-13T08:44:58.615Z,100811.71
2018-05-13T08:47:27.045Z,100837.31
2018-05-13T08:49:55.196Z,100836.69
2018-05-13T08:52:23.321Z,100824.91
2018-05-13T08:54:51.444Z,100828.45
2018-05-13T08:57:19.572Z,100841.85
2018-05-13T08:59:47.697Z,100844.11
2018-05-13T09:02:15.828Z,100835.33
2018-05-13T09:04:43.947Z,100838.62
2018-05-13T09:07:14.968Z,100848.16
2018-05-13T09:09:43.110Z,100865.28
2018-05-13T09:12:11.238Z,100871.31
2018-05-13T09:14:39.397Z,100856.48
2018-05-13T09:17:07.534Z,100826.28
2018-05-13T09:19:35.672Z,100788.89
2018-05-13T09:22:03.787Z,100752.95
2018-05-13T09:24:32.184Z,100737.34
2018-05-13T09:27:00.351Z,100734.17
2018-05-13T09:29:28.522Z,100762.08
2018-05-13T09:31:56.679Z,100783.84
2018-05-13T09:34:24.809Z,100784.22
2018-05-13T09:36:52.924Z,100782.45
2018-05-13T09:39:21.295Z,100786.08
2018-05-13T09:41:49.408Z,100784.03
2018-05-13T09:44:17.527Z,100785.42
2018-05-13T09:46:45.877Z,100790.66
2018-05-13T09:49:14.013Z,100800.22
2018-05-13T09:51:42.137Z,100798.81
2018-05-13T09:54:10.272Z,100808.61
2018-05-13T09:56:38.431Z,100813.27
2018-05-13T09:59:06.582Z,100810.17
2018-05-13T10:01:34.932Z,100815.51
2018-05-13T10:04:03.131Z,100818.56
2018-05-13T10:06:31.197Z,100827.13
2018-05-13T10:08:59.335Z,100832.75
2018-05-13T10:11:27.482Z,100837.25
2018-05-13T10:13:55.614Z,100833.48
2018-05-13T10:16:23.765Z,100837.91
2018-05-13T10:18:51.892Z,100859.29
2018-05-13T10:21:20.016Z,100858.34
2018-05-13T10:23:48.401Z,100851.83
2018-05-13T10:26:16.525Z,100852.83
2018-05-13T10:28:44.662Z,100852.52
2018-05-13T10:31:12.821Z,100838.90
2018-05-13T10:33:40.949Z,100823.09
2018-05-13T10:36:09.090Z,100832.67
2018-05-13T10:38:37.226Z,100850.98
2018-05-13T10:41:05.347Z,100867.98
2018-05-13T10:43:33.480Z,100891.12
2018-05-13T10:46:01.615Z,100885.25
2018-05-13T10:48:29.737Z,100865.53
2018-05-13T10:50:57.872Z,100847.31
2018-05-13T10:53:26.009Z,100843.27
2018-05-13T10:55:54.130Z,100862.72
2018-05-13T10:58:22.257Z,100870.61
2018-05-13T11:00:50.386Z,100878.00
2018-05-13T11:03:18.517Z,100870.25
2018-05-13T11:05:46.641Z,100878.30
2018-05-13T11:08:14.796Z,100885.59
2018-05-13T11:10:42.917Z,100876.60
2018-05-13T11:13:11.060Z,100858.33
2018-05-13T11:15:39.196Z,100867.41
2018-05-13T11:18:07.314Z,100898.10
2018-05-13T11:20:35.485Z,100906.17
2018-05-13T11:23:03.581Z,100895.13
2018-05-13T11:25:31.722Z,100881.20
2018-05-13T11:27:59.844Z,100874.76
2018-05-13T11:30:28.003Z,100861.65
2018-05-13T11:32:56.125Z,100866.69
2018-05-13T11:35:24.237Z,100869.91
2018-05-13T11:37:52.384Z,100879.09
2018-05-13T11:40:20.514Z,100871.10
2018-05-13T11:42:49.043Z,100848.17
2018-05-13T11:45:17.182Z,100833.53
2018-05-13T11:47:45.309Z,100847.75
2018-05-13T11:50:13.438Z,100877.89
2018-05-13T11:52:41.554Z,100891.75
2018-05-13T11:55:09.668Z,100886.34
2018-05-13T11:57:37.801Z,100885.83
2018-05-13T12:00:05.931Z,100899.48
2018-05-13T12:02:34.047Z,100920.58
2018-05-13T12:05:02.178Z,100929.17
2018-05-13T12:07:30.325Z,100919.48
2018-05-13T12:09:58.440Z,100894.21
2018-05-13T12:12:26.592Z,100881.31
2018-05-13T12:14:54.708Z,100884.05
2018-05-13T12:17:22.821Z,100889.95
2018-05-13T12:19:50.953Z,100886.80
2018-05-13T12:22:19.153Z,100889.23
2018-05-13T12:24:47.263Z,100882.14
2018-05-13T12:27:15.405Z,100883.06
2018-05-13T12:29:43.569Z,100880.78
2018-05-13T12:32:11.714Z,100863.80
2018-05-13T12:34:39.858Z,100856.97
2018-05-13T12:37:08.018Z,100841.09
2018-05-13T12:39:36.122Z,100839.75
2018-05-13T12:42:04.257Z,100839.09
2018-05-13T12:44:32.407Z,100852.38
2018-05-13T12:47:00.528Z,100849.02
2018-05-13T12:49:28.650Z,100857.58
2018-05-13T12:51:56.788Z,100852.86
2018-05-13T12:54:24.895Z,100862.62
2018-05-13T12:56:53.040Z,100865.36
2018-05-13T12:59:21.393Z,100865.02
2018-05-13T13:01:49.503Z,100858.58
2018-05-13T13:04:17.641Z,100855.99
2018-05-13T13:06:45.801Z,100854.05
2018-05-13T13:09:13.948Z,100848.99
2018-05-13T13:11:42.018Z,100843.38
2018-05-13T13:14:10.150Z,100844.63
2018-05-13T13:16:38.282Z,100855.36
2018-05-13T13:19:06.399Z,100859.35
2018-05-13T13:21:34.525Z,100856.69
2018-05-13T13:24:02.638Z,100853.35
2018-05-13T13:26:30.773Z,100850.77
2018-05-13T13:28:58.923Z,100851.52
2018-05-13T13:31:27.934Z,100847.42
2018-05-13T13:33:56.057Z,100845.70
2018-05-13T13:36:24.193Z,100838.91
2018-05-13T13:38:52.324Z,100836.73
2018-05-13T13:41:20.453Z,100839.09
2018-05-13T13:43:48.614Z,100832.48
2018-05-13T13:46:16.772Z,100837.40
2018-05-13T13:48:44.976Z,100839.20
2018-05-13T13:51:13.163Z,100844.19
2018-05-13T13:53:41.312Z,100848.33
2018-05-13T13:56:09.597Z,100844.28
2018-05-13T13:58:37.738Z,100843.34
2018-05-13T14:01:05.889Z,100833.69
2018-05-13T14:03:34.030Z,100840.11
2018-05-13T14:06:02.157Z,100841.42
2018-05-13T14:08:30.289Z,100850.92
2018-05-13T14:10:58.434Z,100849.77
2018-05-13T14:13:26.568Z,100839.46
2018-05-13T14:15:54.696Z,100832.91
2018-05-13T14:18:22.869Z,100821.03
2018-05-13T14:20:54.310Z,100807.04
2018-05-13T14:23:22.450Z,100801.66
2018-05-13T14:25:50.591Z,100815.50
2018-05-13T14:28:18.736Z,100817.36
2018-05-13T14:30:46.857Z,100819.65
2018-05-13T14:33:14.988Z,100807.52
2018-05-13T14:35:43.132Z,100796.29
2018-05-13T14:38:11.268Z,100790.63
2018-05-13T14:40:39.399Z,100784.88
2018-05-13T14:43:07.545Z,100788.17
2018-05-13T14:45:35.651Z,100790.52
2018-05-13T14:48:03.779Z,100794.77
2018-05-13T14:50:32.135Z,100799.84
2018-05-13T14:53:00.241Z,100802.42
2018-05-13T14:55:28.381Z,100794.88
2018-05-13T14:57:56.513Z,100775.36
2018-05-13T15:00:24.664Z,100774.02
2018-05-13T15:02:52.874Z,100771.12
2018-05-13T15:05:21.040Z,100773.11
2018-05-13T15:07:49.224Z,100774.14
2018-05-13T15:10:17.444Z,100775.48
2018-05-13T15:12:45.640Z,100777.77
2018-05-13T15:15:13.768Z,100785.33
2018-05-13T15:17:41.884Z,100792.27
2018-05-13T15:20:13.238Z,100794.44
2018-05-13T15:22:41.391Z,100793.08
2018-05-13T15:25:09.502Z,100799.16
2018-05-13T15:27:37.657Z,100804.09
2018-05-13T15:30:05.800Z,100820.36
2018-05-13T15:32:33.921Z,100826.91
2018-05-13T15:35:02.096Z,100828.78
2018-05-13T15:37:30.209Z,100827.61
2018-05-13T15:39:58.443Z,100824.77
2018-05-13T15:42:26.661Z,100827.53
2018-05-13T15:44:54.723Z,100827.95
2018-05-13T15:47:22.848Z,100830.37
2018-05-13T15:49:50.992Z,100827.69
2018-05-13T15:52:19.105Z,100829.58
2018-05-13T15:54:47.289Z,100825.76
2018-05-13T15:57:15.429Z,100818.19
2018-05-13T15:59:43.559Z,100823.35
2018-05-13T16:02:12.585Z,100828.45
2018-05-13T16:04:40.699Z,100829.75
2018-05-13T16:07:08.953Z,100831.09
2018-05-13T16:09:37.060Z,100822.27
2018-05-13T16:12:05.240Z,100819.66
2018-05-13T16:14:33.371Z,100814.25
2018-05-13T16:17:01.497Z,100811.87
2018-05-13T16:19:29.651Z,100817.67
2018-05-13T16:21:57.773Z,100821.81
2018-05-13T16:24:25.928Z,100827.19
2018-05-13T16:26:54.232Z,100829.98
2018-05-13T16:29:22.391Z,100829.59
2018-05-13T16:31:50.517Z,100828.66
2018-05-13T16:34:18.661Z,100830.85
2018-05-13T16:36:46.789Z,100821.55
2018-05-13T16:39:14.898Z,100830.88
2018-05-13T16:41:43.019Z,100824.66
2018-05-13T16:44:11.139Z,100815.27
2018-05-13T16:46:39.274Z,100818.79
2018-05-13T16:49:07.410Z,100814.19
2018-05-13T16:51:35.542Z,100817.48
2018-05-13T16:54:06.939Z,100811.41
2018-05-13T16:56:35.058Z,100807.22
2018-05-13T16:59:06.969Z,100811.89
2018-05-13T17:01:35.134Z,100805.59
2018-05-13T17:04:03.223Z,100806.28
2018-05-13T17:06:31.378Z,100797.85
2018-05-13T17:08:59.502Z,100801.95
2018-05-13T17:11:27.637Z,100794.33
2018-05-13T17:13:55.770Z,100796.36
2018-05-13T17:16:23.882Z,100797.33
2018-05-13T17:18:52.295Z,100796.95
2018-05-13T17:21:20.423Z,100789.95
2018-05-13T17:23:48.541Z,100787.36
2018-05-13T17:26:16.660Z,100779.84
2018-05-13T17:28:44.793Z,100779.81
2018-05-13T17:31:12.902Z,100774.80
2018-05-13T17:33:41.038Z,100782.47
2018-05-13T17:36:09.170Z,100784.89
2018-05-13T17:38:37.303Z,100792.73
2018-05-13T17:41:05.427Z,100805.89
2018-05-13T17:43:33.563Z,100820.23
2018-05-13T17:46:01.728Z,100818.39
2018-05-13T17:48:29.875Z,100818.27
2018-05-13T17:50:57.991Z,100815.00
2018-05-13T17:53:26.117Z,100819.31
2018-05-13T17:55:54.271Z,100823.23
2018-05-13T17:58:22.379Z,100821.90
2018-05-13T18:00:50.586Z,100831.00
2018-05-13T18:03:18.750Z,100833.85
2018-05-13T18:05:46.792Z,100839.84
2018-05-13T18:08:14.931Z,100838.80
2018-05-13T18:10:43.069Z,100839.41
2018-05-13T18:13:11.205Z,100847.64
2018-05-13T18:15:39.335Z,100853.22
2018-05-13T18:18:07.473Z,100856.67
2018-05-13T18:20:35.633Z,100856.04
2018-05-13T18:23:03.762Z,100857.40
2018-05-13T18:25:31.904Z,100860.01
2018-05-13T18:27:59.999Z,100868.94
2018-05-13T18:30:28.115Z,100865.44
2018-05-13T18:32:56.557Z,100866.28
2018-05-13T18:35:24.671Z,100876.55
2018-05-13T18:37:52.815Z,100874.29
2018-05-13T18:40:20.936Z,100875.52
2018-05-13T18:42:49.083Z,100876.82
2018-05-13T18:45:19.241Z,100878.05
2018-05-13T18:47:47.417Z,100881.20
2018-05-13T18:50:15.545Z,100876.36
2018-05-13T18:52:43.648Z,100871.56
2018-05-13T18:55:11.833Z,100872.07
2018-05-13T18:57:39.959Z,100869.38
2018-05-13T19:00:08.102Z,100871.85
2018-05-13T19:02:36.946Z,100870.02
2018-05-13T19:05:05.072Z,100875.52
2018-05-13T19:07:33.183Z,100869.09
2018-05-13T19:10:01.331Z,100868.94
2018-05-13T19:12:29.456Z,100875.19
2018-05-13T19:14:57.611Z,100881.93
2018-05-13T19:17:25.756Z,100883.12
2018-05-13T19:19:53.889Z,100879.97
2018-05-13T19:22:22.011Z,100874.28
2018-05-13T19:24:50.204Z,100875.67
2018-05-13T19:27:18.260Z,100869.73
2018-05-13T19:29:46.412Z,100866.42
2018-05-13T19:32:14.549Z,100862.23
2018-05-13T19:34:42.663Z,100851.19
2018-05-13T19:37:10.784Z,100854.80
2018-05-13T19:39:39.152Z,100851.77
2018-05-13T19:42:07.283Z,100854.69
2018-05-13T19:44:35.427Z,100844.13
2018-05-13T19:47:03.570Z,100837.31
2018-05-13T19:49:31.705Z,100826.33
2018-05-13T19:51:59.844Z,100827.66
2018-05-13T19:54:28.010Z,100828.78
2018-05-13T19:56:56.130Z,100827.87
2018-05-13T19:59:24.254Z,100835.61
2018-05-13T20:01:53.080Z,100843.16
2018-05-13T20:04:21.183Z,100846.86
2018-05-13T20:06:49.325Z,100848.41
2018-05-13T20:09:17.563Z,100860.48
2018-05-13T20:11:45.630Z,100865.45
2018-05-13T20:14:13.765Z,100862.44
2018-05-13T20:16:41.930Z,100870.97
2018-05-13T20:19:10.093Z,100863.67
2018-05-13T20:21:38.229Z,100864.73
2018-05-13T20:24:06.376Z,100860.41
2018-05-13T20:26:34.508Z,100856.86
2018-05-13T20:29:02.615Z,100852.80
2018-05-13T20:31:33.971Z,100857.65
2018-05-13T20:34:02.111Z,100857.55
2018-05-13T20:36:30.222Z,100865.73
2018-05-13T20:38:58.350Z,100877.39
2018-05-13T20:41:26.495Z,100887.78
2018-05-13T20:43:54.617Z,100899.03
2018-05-13T20:46:22.754Z,100914.17
2018-05-13T20:48:50.936Z,100923.40
2018-05-13T20:51:19.214Z,100928.47
2018-05-13T20:53:47.265Z,100930.84
2018-05-13T20:56:15.432Z,100933.00
2018-05-13T20:58:43.636Z,100932.94
2018-05-13T21:01:11.834Z,100944.69
2018-05-13T21:03:40.039Z,100955.67
2018-05-13T21:06:08.162Z,100955.37
2018-05-13T21:08:36.307Z,100957.84
2018-05-13T21:11:04.418Z,100961.70
2018-05-13T21:13:32.545Z,100949.91
2018-05-13T21:16:00.741Z,100953.34
2018-05-13T21:18:28.818Z,100946.76
2018-05-13T21:20:56.956Z,100949.18
2018-05-13T21:23:25.306Z,100937.36
2018-05-13T21:25:53.441Z,100943.78
2018-05-13T21:28:21.561Z,100940.37
2018-05-13T21:30:49.786Z,100930.71
2018-05-13T21:33:17.897Z,100921.77
2018-05-13T21:35:46.011Z,100910.11
2018-05-13T21:38:14.139Z,100905.78
2018-05-13T21:40:42.280Z,100900.12
2018-05-13T21:43:10.421Z,100892.59
2018-05-13T21:45:38.601Z,100892.38
2018-05-13T21:48:06.724Z,100884.56
2018-05-13T21:50:34.863Z,100874.71
2018-05-13T21:53:03.005Z,100867.86
2018-05-13T21:55:31.140Z,100866.70
2018-05-13T21:57:59.279Z,100880.65
2018-05-13T22:00:27.410Z,100888.08
2018-05-13T22:02:55.548Z,100892.56
2018-05-13T22:05:23.689Z,100882.52
2018-05-13T22:07:51.857Z,100881.91
2018-05-13T22:10:19.955Z,100875.22
2018-05-13T22:12:48.084Z,100872.77
2018-05-13T22:15:16.221Z,100882.48
2018-05-13T22:17:44.364Z,100893.20
2018-05-13T22:20:12.486Z,100893.75
2018-05-13T22:22:40.656Z,100903.38
2018-05-13T22:25:08.755Z,100903.66
2018-05-13T22:27:37.057Z,100906.89
2018-05-13T22:30:05.204Z,100902.95
2018-05-13T22:32:33.350Z,100905.41
2018-05-13T22:35:01.469Z,100896.11
2018-05-13T22:37:29.613Z,100885.69
2018-05-13T22:39:57.724Z,100882.10
2018-05-13T22:42:25.888Z,100892.72
2018-05-13T22:44:54.054Z,100896.84
2018-05-13T22:47:22.214Z,100891.25
2018-05-13T22:49:50.325Z,100890.23
2018-05-13T22:52:18.544Z,100895.74
2018-05-13T22:54:46.602Z,100889.27
2018-05-13T22:57:14.750Z,100883.55
2018-05-13T22:59:42.889Z,100875.61
2018-05-13T23:02:11.040Z,100870.66
2018-05-13T23:04:39.150Z,100861.19
2018-05-13T23:07:07.297Z,100858.72
2018-05-13T23:09:35.415Z,100855.42
2018-05-13T23:12:03.551Z,100850.86
2018-05-13T23:14:31.919Z,100851.73
2018-05-13T23:17:00.038Z,100852.91
2018-05-13T23:19:28.172Z,100843.73
2018-05-13T23:21:56.311Z,100843.98
2018-05-13T23:24:24.445Z,100842.06
2018-05-13T23:26:52.572Z,100841.33
2018-05-13T23:29:20.990Z,100841.64
2018-05-13T23:31:49.147Z,100843.80
2018-05-13T23:34:17.292Z,100844.77
2018-05-13T23:36:45.433Z,100849.12
2018-05-13T23:39:13.666Z,100841.19
2018-05-13T23:41:41.793Z,100835.88
2018-05-13T23:44:09.941Z,100833.08
2018-05-13T23:46:38.083Z,100832.41
2018-05-13T23:49:06.235Z,100820.70
2018-05-13T23:51:34.462Z,100822.45
2018-05-13T23:54:02.521Z,100805.63
2018-05-13T23:56:30.662Z,100801.82
2018-05-13T23:58:58.778Z,100807.37
